Time;durP1;ratioP1;P1;durP2;ratioP2;P2;SDS_P1;SDS_P2;PMS_P1;PMS_P2;Temp;Humidity;BMP_temperature;BMP_pressure;BME280_temperature;BME280_humidity;BME280_pressure;Samples;Min_cycle;Max_cycle;Signal;HPM_P1;HPM_P2
2023/12/09 00:02:21;;;;;;;32.88;11.98;;;6.90;99.90;;;;;;5013961;28;20038;-73
2023/12/09 00:04:47;;;;;;;27.15;10.82;;;6.90;99.90;;;;;;5024301;28;20049;-73
2023/12/09 00:07:12;;;;;;;25.80;12.80;;;6.90;99.90;;;;;;5024012;28;20479;-73
2023/12/09 00:09:38;;;;;;;39.75;15.00;;;6.90;99.90;;;;;;5017680;28;20064;-73
2023/12/09 00:12:04;;;;;;;53.45;14.25;;;6.90;99.90;;;;;;5013680;28;20093;-74
2023/12/09 00:14:29;;;;;;;32.35;12.68;;;6.90;99.90;;;;;;4986934;28;20119;-74
2023/12/09 00:16:55;;;;;;;50.03;13.18;;;6.90;99.90;;;;;;5008948;28;20053;-74
2023/12/09 00:19:21;;;;;;;30.20;12.05;;;7.00;99.90;;;;;;5023007;28;20045;-74
2023/12/09 00:21:46;;;;;;;23.85;10.15;;;7.00;99.90;;;;;;5024276;28;20094;-74
2023/12/09 00:24:12;;;;;;;37.47;11.38;;;7.00;99.90;;;;;;5022126;28;20124;-74
2023/12/09 00:26:37;;;;;;;35.25;12.98;;;7.00;99.90;;;;;;5024383;28;20045;-74
2023/12/09 00:29:03;;;;;;;34.28;11.95;;;7.00;99.90;;;;;;5015058;28;20153;-74
2023/12/09 00:31:28;;;;;;;31.77;12.88;;;7.00;99.90;;;;;;5004666;28;20049;-74
2023/12/09 00:33:54;;;;;;;30.85;11.95;;;7.00;99.90;;;;;;5003021;28;20053;-74
2023/12/09 00:36:20;;;;;;;22.55;12.27;;;7.00;99.90;;;;;;5004649;28;20042;-74
2023/12/09 00:38:45;;;;;;;46.95;11.10;;;7.10;99.90;;;;;;5003678;28;20507;-74
2023/12/09 00:41:11;;;;;;;22.70;9.88;;;7.10;99.90;;;;;;5002605;28;20128;-74
2023/12/09 00:43:36;;;;;;;34.65;11.73;;;7.10;99.90;;;;;;5002042;28;20189;-74
2023/12/09 00:46:02;;;;;;;31.25;12.43;;;7.10;99.90;;;;;;5003165;28;20113;-74
2023/12/09 00:48:28;;;;;;;27.60;10.52;;;7.10;99.90;;;;;;5002711;28;20033;-75
2023/12/09 00:50:53;;;;;;;33.78;10.77;;;7.10;99.90;;;;;;5003560;28;20432;-74
2023/12/09 00:53:19;;;;;;;29.27;10.13;;;7.10;99.90;;;;;;5004301;28;20049;-74
2023/12/09 00:55:45;;;;;;;35.83;12.20;;;7.10;99.90;;;;;;5002517;28;20041;-74
2023/12/09 00:58:10;;;;;;;23.08;10.50;;;7.10;99.90;;;;;;5002694;28;20042;-74
2023/12/09 01:00:36;;;;;;;33.50;12.43;;;7.10;99.90;;;;;;5004789;28;20379;-74
2023/12/09 01:03:01;;;;;;;35.70;11.80;;;7.10;99.90;;;;;;5012457;28;20073;-74
2023/12/09 01:05:27;;;;;;;23.92;11.00;;;7.10;99.90;;;;;;5021953;28;20099;-74
2023/12/09 01:07:52;;;;;;;25.95;9.18;;;7.00;99.90;;;;;;5019215;28;20038;-74
2023/12/09 01:10:18;;;;;;;26.88;11.73;;;7.00;99.90;;;;;;5007824;28;20037;-74
2023/12/09 01:12:43;;;;;;;22.30;11.20;;;6.90;99.90;;;;;;5020007;28;20057;-74
2023/12/09 01:15:09;;;;;;;21.33;10.25;;;6.80;99.90;;;;;;5021251;28;20063;-74
2023/12/09 01:17:35;;;;;;;18.08;9.32;;;6.80;99.90;;;;;;5021495;28;20088;-74
2023/12/09 01:20:00;;;;;;;21.58;9.85;;;6.80;99.90;;;;;;4996904;28;20104;-74
2023/12/09 01:22:26;;;;;;;27.63;9.75;;;6.80;99.90;;;;;;5011016;28;20053;-74
2023/12/09 01:24:51;;;;;;;19.40;9.85;;;6.80;99.90;;;;;;5022638;28;20069;-74
2023/12/09 01:27:17;;;;;;;19.95;8.95;;;6.80;99.90;;;;;;5014443;28;20038;-74
2023/12/09 01:29:43;;;;;;;16.60;8.40;;;6.80;99.90;;;;;;5002249;28;20077;-74
2023/12/09 01:32:08;;;;;;;15.27;6.85;;;6.70;99.90;;;;;;4985718;28;20448;-74
2023/12/09 01:34:36;;;;;;;27.33;9.75;;;6.70;99.90;;;;;;5004054;28;20042;-74
2023/12/09 01:37:02;;;;;;;22.70;8.45;;;6.70;99.90;;;;;;5001237;28;20092;-74
2023/12/09 01:39:27;;;;;;;26.10;9.25;;;6.70;99.90;;;;;;5002251;28;20074;-74
2023/12/09 01:41:53;;;;;;;29.17;10.43;;;6.70;99.90;;;;;;5002436;28;20057;-74
2023/12/09 01:44:18;;;;;;;27.20;10.82;;;6.70;99.90;;;;;;5002496;28;20121;-74
2023/12/09 01:46:44;;;;;;;27.23;8.88;;;6.60;99.90;;;;;;5004631;28;20040;-74
2023/12/09 01:49:10;;;;;;;24.75;10.50;;;6.60;99.90;;;;;;5001321;28;20129;-74
2023/12/09 01:51:38;;;;;;;16.95;8.43;;;6.60;99.90;;;;;;5001301;28;20676;-74
2023/12/09 01:54:04;;;;;;;21.83;9.93;;;6.60;99.90;;;;;;5002334;28;20038;-74
2023/12/09 01:56:30;;;;;;;16.98;7.18;;;6.60;99.90;;;;;;5001359;28;20046;-74
2023/12/09 01:58:55;;;;;;;12.77;5.38;;;6.60;99.90;;;;;;5001298;28;20042;-74
2023/12/09 02:01:21;;;;;;;10.43;6.30;;;6.60;99.90;;;;;;5011659;28;20040;-74
2023/12/09 02:03:50;;;;;;;15.75;6.18;;;6.60;99.90;;;;;;5002273;28;20042;-74
2023/12/09 02:06:16;;;;;;;13.02;6.45;;;6.70;99.90;;;;;;5017700;28;20128;-74
2023/12/09 02:08:41;;;;;;;18.20;8.48;;;6.60;99.90;;;;;;5006948;28;20442;-74
2023/12/09 02:11:22;;;;;;;33.70;8.77;;;6.60;99.90;;;;;;4982406;28;20453;-74
2023/12/09 02:13:56;;;;;;;27.98;8.20;;;6.60;99.90;;;;;;4980991;28;20085;-74
2023/12/09 02:16:46;;;;;;;15.90;5.78;;;6.60;99.90;;;;;;4982744;28;20693;-74
2023/12/09 02:19:13;;;;;;;25.92;8.30;;;6.70;99.90;;;;;;4965276;28;20053;-74
2023/12/09 02:22:01;;;;;;;9.52;5.38;;;6.70;99.90;;;;;;4991051;28;20050;-74
2023/12/09 02:24:28;;;;;;;13.88;6.55;;;6.70;99.90;;;;;;5002706;28;20045;-74
2023/12/09 02:26:58;;;;;;;22.48;8.65;;;6.70;99.90;;;;;;5001787;28;20045;-74
2023/12/09 02:29:25;;;;;;;14.43;5.90;;;6.70;99.90;;;;;;4999743;28;20736;-74
2023/12/09 02:31:55;;;;;;;16.63;8.82;;;6.70;99.90;;;;;;4985505;28;20401;-74
2023/12/09 02:34:22;;;;;;;19.05;7.03;;;6.70;99.90;;;;;;4965091;28;20571;-75
2023/12/09 02:36:49;;;;;;;21.55;7.22;;;6.80;99.90;;;;;;4992100;28;20049;-74
2023/12/09 02:39:17;;;;;;;16.60;7.00;;;6.80;99.90;;;;;;4983036;28;20117;-74
2023/12/09 02:41:44;;;;;;;20.38;6.95;;;6.80;99.90;;;;;;4991982;28;20412;-74
2023/12/09 02:44:11;;;;;;;16.70;7.25;;;6.80;99.90;;;;;;4988892;28;20038;-74
2023/12/09 02:46:36;;;;;;;18.92;5.75;;;6.80;99.90;;;;;;5020536;28;20053;-74
2023/12/09 02:49:02;;;;;;;14.55;7.07;;;6.80;99.90;;;;;;5020118;28;20515;-74
2023/12/09 02:51:27;;;;;;;16.27;6.57;;;6.70;99.90;;;;;;5021240;28;20447;-74
2023/12/09 02:53:54;;;;;;;18.02;6.07;;;6.70;99.90;;;;;;5021190;28;20448;-74
2023/12/09 02:56:20;;;;;;;13.38;6.53;;;6.70;99.90;;;;;;5021301;28;20041;-74
2023/12/09 02:58:46;;;;;;;15.75;5.70;;;6.70;99.90;;;;;;5020849;28;20052;-74
2023/12/09 03:01:11;;;;;;;13.27;5.07;;;6.70;99.90;;;;;;5020925;28;20045;-74
2023/12/09 03:03:37;;;;;;;20.38;8.48;;;6.60;99.90;;;;;;5012812;28;20650;-74
2023/12/09 03:06:03;;;;;;;10.00;5.53;;;6.60;99.90;;;;;;5015999;28;20211;-74
2023/12/09 03:08:28;;;;;;;16.95;7.57;;;6.60;99.90;;;;;;5012939;28;20365;-74
2023/12/09 03:10:54;;;;;;;10.18;6.70;;;6.60;99.90;;;;;;5018680;28;20041;-74
2023/12/09 03:13:19;;;;;;;20.63;6.97;;;6.50;99.90;;;;;;5019360;28;20205;-74
2023/12/09 03:15:45;;;;;;;15.00;7.18;;;6.50;99.90;;;;;;5006149;28;20752;-74
2023/12/09 03:18:10;;;;;;;16.55;5.85;;;6.60;99.90;;;;;;4993090;28;20048;-74
2023/12/09 03:20:36;;;;;;;15.00;5.70;;;6.60;99.90;;;;;;4984233;28;20126;-74
2023/12/09 03:23:01;;;;;;;15.63;7.78;;;6.60;99.90;;;;;;4980354;28;20520;-74
2023/12/09 03:25:27;;;;;;;15.18;6.03;;;6.60;99.90;;;;;;4980803;28;20046;-74
2023/12/09 03:27:53;;;;;;;12.88;6.20;;;6.60;99.90;;;;;;4990565;28;20049;-74
2023/12/09 03:30:18;;;;;;;15.07;8.95;;;6.70;99.90;;;;;;4993794;28;20038;-74
2023/12/09 03:32:44;;;;;;;25.35;7.15;;;6.70;99.90;;;;;;4981682;28;20081;-74
2023/12/09 03:35:12;;;;;;;14.25;5.80;;;6.70;99.90;;;;;;4981295;28;20047;-74
2023/12/09 03:37:38;;;;;;;14.85;6.80;;;6.70;99.90;;;;;;4980762;28;20397;-74
2023/12/09 03:40:04;;;;;;;13.38;6.63;;;6.70;99.90;;;;;;4981319;28;20117;-74
2023/12/09 03:42:29;;;;;;;16.60;6.50;;;6.70;99.90;;;;;;4980592;28;20100;-74
2023/12/09 03:44:55;;;;;;;12.45;5.68;;;6.80;99.90;;;;;;4999098;28;20046;-74
2023/12/09 03:47:20;;;;;;;13.15;5.47;;;6.80;99.90;;;;;;4997156;28;20121;-74
2023/12/09 03:49:46;;;;;;;21.17;7.80;;;6.80;99.90;;;;;;5013735;28;20454;-74
2023/12/09 03:52:11;;;;;;;11.80;5.47;;;6.80;99.90;;;;;;5014992;28;20540;-74
2023/12/09 03:54:37;;;;;;;19.73;8.13;;;6.90;99.90;;;;;;5014707;28;20663;-74
2023/12/09 03:57:03;;;;;;;19.55;6.88;;;6.90;99.90;;;;;;5019577;28;20060;-74
2023/12/09 03:59:29;;;;;;;17.55;6.57;;;6.80;99.90;;;;;;5003026;28;20343;-74
2023/12/09 04:01:54;;;;;;;16.65;7.05;;;6.80;99.90;;;;;;5008489;28;20060;-74
2023/12/09 04:04:20;;;;;;;16.73;6.55;;;6.90;99.90;;;;;;5016723;28;20057;-74
2023/12/09 04:06:45;;;;;;;17.50;8.90;;;6.90;99.90;;;;;;4999986;28;20050;-74
2023/12/09 04:09:11;;;;;;;14.57;6.72;;;6.90;99.90;;;;;;4975028;28;20414;-74
2023/12/09 04:11:37;;;;;;;13.48;7.72;;;6.90;99.90;;;;;;4999729;28;20079;-74
2023/12/09 04:14:03;;;;;;;12.40;5.05;;;6.90;99.90;;;;;;4998239;28;20095;-74
2023/12/09 04:16:29;;;;;;;16.67;5.60;;;6.90;99.90;;;;;;5000065;28;20046;-74
2023/12/09 04:18:55;;;;;;;15.38;7.60;;;6.90;99.90;;;;;;4987185;28;20514;-74
2023/12/09 04:21:21;;;;;;;17.08;5.93;;;6.90;99.90;;;;;;5005457;28;20042;-75
2023/12/09 04:23:47;;;;;;;11.07;5.93;;;6.90;99.90;;;;;;5012707;28;20504;-74
2023/12/09 04:26:13;;;;;;;12.70;6.35;;;6.90;99.90;;;;;;5023042;28;20068;-74
2023/12/09 04:28:39;;;;;;;14.05;5.95;;;6.80;99.90;;;;;;5022766;28;20045;-74
2023/12/09 04:31:05;;;;;;;15.18;5.43;;;6.80;99.90;;;;;;5022184;28;20128;-74
2023/12/09 04:33:30;;;;;;;13.50;5.75;;;6.90;99.90;;;;;;4994549;28;20449;-75
2023/12/09 04:35:56;;;;;;;10.52;4.78;;;6.90;99.90;;;;;;4999185;28;20042;-74
2023/12/09 04:38:21;;;;;;;19.05;6.90;;;6.90;99.90;;;;;;5004119;28;20148;-75
2023/12/09 04:40:47;;;;;;;10.27;7.10;;;6.90;99.90;;;;;;5000650;28;20489;-74
2023/12/09 04:43:13;;;;;;;16.25;7.35;;;6.90;99.90;;;;;;4992920;28;20551;-74
2023/12/09 04:45:38;;;;;;;18.27;7.55;;;6.90;99.90;;;;;;4983410;28;20043;-74
2023/12/09 04:48:04;;;;;;;10.90;5.78;;;6.90;99.90;;;;;;5008387;28;20045;-74
2023/12/09 04:50:30;;;;;;;11.55;6.32;;;6.90;99.90;;;;;;5022589;28;20058;-75
2023/12/09 04:52:56;;;;;;;20.42;6.55;;;6.80;99.90;;;;;;5009966;28;20620;-74
2023/12/09 04:55:21;;;;;;;18.05;5.90;;;6.80;99.90;;;;;;4996495;28;20136;-74
2023/12/09 04:57:47;;;;;;;12.23;5.85;;;6.80;99.90;;;;;;5011647;28;20041;-74
2023/12/09 05:00:13;;;;;;;11.75;4.25;;;6.80;99.90;;;;;;5022959;28;20037;-74
2023/12/09 05:02:39;;;;;;;14.75;5.45;;;6.80;99.90;;;;;;5021811;28;20128;-75
2023/12/09 05:05:07;;;;;;;13.15;5.10;;;6.80;99.90;;;;;;5023536;28;20052;-74
2023/12/09 05:07:33;;;;;;;18.83;5.78;;;6.80;99.90;;;;;;5021496;28;20094;-74
2023/12/09 05:09:58;;;;;;;10.20;5.47;;;6.70;99.90;;;;;;5001267;28;20124;-74
2023/12/09 05:12:24;;;;;;;12.45;6.22;;;6.70;99.90;;;;;;4986803;28;20658;-74
2023/12/09 05:14:49;;;;;;;16.48;5.28;;;6.70;99.90;;;;;;4986914;28;20039;-74
2023/12/09 05:17:15;;;;;;;10.05;5.82;;;6.70;99.90;;;;;;4995661;28;20168;-74
2023/12/09 05:19:41;;;;;;;8.73;4.50;;;6.70;99.90;;;;;;4997660;28;20140;-74
2023/12/09 05:22:07;;;;;;;15.27;4.55;;;6.60;99.90;;;;;;4995746;28;20077;-74
2023/12/09 05:24:32;;;;;;;19.50;6.00;;;6.60;99.90;;;;;;4996320;28;20049;-74
2023/12/09 05:26:58;;;;;;;6.00;4.72;;;6.60;99.90;;;;;;4999115;28;20033;-74
2023/12/09 05:29:24;;;;;;;14.38;4.97;;;6.60;99.90;;;;;;5008393;28;20053;-75
2023/12/09 05:31:49;;;;;;;20.58;8.02;;;6.60;99.90;;;;;;5004090;28;20046;-75
2023/12/09 05:34:16;;;;;;;11.88;5.32;;;6.50;99.90;;;;;;5004231;28;20057;-75
2023/12/09 05:36:42;;;;;;;16.13;6.97;;;6.40;99.90;;;;;;5022563;28;20492;-74
2023/12/09 05:39:08;;;;;;;17.70;7.32;;;6.40;99.90;;;;;;5000342;28;20108;-74
2023/12/09 05:41:34;;;;;;;14.68;5.28;;;6.40;99.90;;;;;;4982243;28;20052;-74
2023/12/09 05:43:59;;;;;;;7.90;5.13;;;6.40;99.90;;;;;;4997010;28;20042;-74
2023/12/09 05:46:25;;;;;;;15.52;5.93;;;6.40;99.90;;;;;;4996303;28;20053;-74
2023/12/09 05:48:50;;;;;;;9.95;4.72;;;6.40;99.90;;;;;;5014874;28;20125;-74
2023/12/09 05:51:16;;;;;;;7.47;4.55;;;6.30;99.90;;;;;;4999619;28;20065;-74
2023/12/09 05:53:41;;;;;;;13.23;4.68;;;6.30;99.90;;;;;;4974057;28;20052;-75
2023/12/09 05:56:13;;;;;;;14.05;4.78;;;6.30;99.90;;;;;;5012620;28;20508;-74
2023/12/09 05:58:39;;;;;;;12.95;6.03;;;6.30;99.90;;;;;;5008987;28;20074;-75
2023/12/09 06:01:05;;;;;;;9.65;5.95;;;6.20;99.90;;;;;;5007945;28;20077;-75
2023/12/09 06:03:31;;;;;;;12.88;5.03;;;6.20;99.90;;;;;;4999887;28;20046;-75
2023/12/09 06:05:58;;;;;;;14.43;5.53;;;6.20;99.90;;;;;;4986337;28;20060;-75
2023/12/09 06:08:23;;;;;;;13.60;5.90;;;6.30;99.90;;;;;;4999860;28;20057;-75
2023/12/09 06:10:49;;;;;;;12.85;5.93;;;6.20;99.90;;;;;;5017650;28;20120;-75
2023/12/09 06:13:15;;;;;;;9.68;4.18;;;6.30;99.90;;;;;;5019954;28;20393;-75
2023/12/09 06:15:41;;;;;;;12.25;5.38;;;6.20;99.90;;;;;;5020585;28;20096;-75
2023/12/09 06:18:06;;;;;;;8.32;4.28;;;6.20;99.90;;;;;;5021513;28;20673;-76
2023/12/09 06:20:32;;;;;;;10.20;5.65;;;6.20;99.90;;;;;;5020392;28;20064;-75
2023/12/09 06:22:57;;;;;;;13.90;5.78;;;6.20;99.90;;;;;;5019022;28;20049;-75
2023/12/09 06:25:23;;;;;;;21.58;6.82;;;6.10;99.90;;;;;;5016144;28;20081;-75
2023/12/09 06:27:48;;;;;;;11.45;5.70;;;6.10;99.90;;;;;;5004652;28;20042;-75
2023/12/09 06:30:14;;;;;;;16.83;5.68;;;6.00;99.90;;;;;;4997191;28;20042;-75
2023/12/09 06:32:41;;;;;;;14.32;6.60;;;6.00;99.90;;;;;;4980389;28;20042;-75
2023/12/09 06:35:07;;;;;;;13.85;6.60;;;6.00;99.90;;;;;;4989330;28;20077;-75
2023/12/09 06:37:33;;;;;;;11.45;5.10;;;6.00;99.90;;;;;;5000504;28;20084;-75
2023/12/09 06:39:59;;;;;;;5.65;3.65;;;6.00;99.90;;;;;;5000686;28;20104;-75
2023/12/09 06:42:24;;;;;;;10.15;5.53;;;6.00;99.90;;;;;;5000631;28;20044;-75
2023/12/09 06:44:50;;;;;;;7.50;4.95;;;6.00;99.90;;;;;;5001366;28;20046;-75
2023/12/09 06:47:15;;;;;;;13.20;5.70;;;6.00;99.90;;;;;;5000636;28;20125;-75
2023/12/09 06:49:41;;;;;;;13.48;5.65;;;6.00;99.90;;;;;;5001165;28;20408;-75
2023/12/09 06:52:07;;;;;;;11.02;5.97;;;6.00;99.90;;;;;;4999934;28;20549;-75
2023/12/09 06:54:32;;;;;;;18.92;6.72;;;6.00;99.90;;;;;;5000310;28;20055;-75
2023/12/09 06:56:58;;;;;;;19.42;5.43;;;6.00;99.90;;;;;;4999648;28;20069;-75
2023/12/09 06:59:25;;;;;;;16.98;5.28;;;6.00;99.90;;;;;;4997078;28;20050;-75
2023/12/09 07:01:51;;;;;;;7.72;5.25;;;6.00;99.90;;;;;;4995203;28;20041;-75
2023/12/09 07:04:17;;;;;;;8.80;5.15;;;6.00;99.90;;;;;;4994091;28;20050;-75
2023/12/09 07:06:43;;;;;;;22.70;7.10;;;6.00;99.90;;;;;;5019282;28;20136;-75
2023/12/09 07:09:09;;;;;;;12.38;5.45;;;6.10;99.90;;;;;;5006079;28;20141;-75
2023/12/09 07:11:34;;;;;;;10.45;5.25;;;6.00;99.90;;;;;;5001538;28;20452;-75
2023/12/09 07:14:00;;;;;;;13.48;5.22;;;6.10;99.90;;;;;;4999121;28;20050;-76
2023/12/09 07:16:25;;;;;;;11.77;4.35;;;6.10;99.90;;;;;;5000924;28;20061;-75
2023/12/09 07:18:58;;;;;;;12.57;4.72;;;6.10;99.90;;;;;;5001155;28;20042;-75
2023/12/09 07:21:24;;;;;;;13.45;6.28;;;6.10;99.90;;;;;;5000019;28;20058;-75
2023/12/09 07:23:50;;;;;;;8.73;5.20;;;6.10;99.90;;;;;;5000876;28;20050;-75
2023/12/09 07:26:16;;;;;;;11.45;5.45;;;6.20;99.90;;;;;;5000267;28;20042;-75
2023/12/09 07:28:41;;;;;;;9.27;5.57;;;6.20;99.90;;;;;;4999136;28;20126;-75
2023/12/09 07:31:07;;;;;;;12.52;6.38;;;6.20;99.90;;;;;;4999796;28;20128;-75
2023/12/09 07:33:32;;;;;;;23.55;7.30;;;6.20;99.90;;;;;;5001023;28;20042;-75
2023/12/09 07:35:58;;;;;;;8.68;5.55;;;6.20;99.90;;;;;;5012729;28;20041;-75
2023/12/09 07:38:24;;;;;;;11.30;3.85;;;6.20;99.90;;;;;;5017825;28;20071;-75
2023/12/09 07:40:49;;;;;;;11.23;6.10;;;6.20;99.90;;;;;;5019009;28;20420;-75
2023/12/09 07:43:15;;;;;;;16.73;6.60;;;6.30;99.90;;;;;;5018812;28;20511;-76
2023/12/09 07:45:41;;;;;;;5.97;3.95;;;6.30;99.90;;;;;;5007864;28;20103;-75
2023/12/09 07:48:07;;;;;;;8.90;5.32;;;6.30;99.90;;;;;;4983327;28;20033;-75
2023/12/09 07:50:34;;;;;;;15.05;5.75;;;6.30;99.90;;;;;;4999587;28;20176;-75
2023/12/09 07:53:00;;;;;;;12.93;5.47;;;6.30;99.90;;;;;;4999587;28;20050;-76
2023/12/09 07:55:26;;;;;;;6.35;3.55;;;6.40;99.90;;;;;;4999564;28;20069;-75
2023/12/09 07:57:51;;;;;;;14.82;5.65;;;6.30;99.90;;;;;;4984961;28;20045;-76
2023/12/09 08:00:17;;;;;;;7.90;4.88;;;6.40;99.90;;;;;;5005024;28;20093;-75
2023/12/09 08:02:43;;;;;;;16.52;5.80;;;6.40;99.90;;;;;;5001269;28;20492;-74
2023/12/09 08:05:09;;;;;;;9.50;5.47;;;6.40;99.90;;;;;;5003816;28;20544;-74
2023/12/09 08:07:35;;;;;;;7.82;4.05;;;6.40;99.90;;;;;;5006099;28;20061;-74
2023/12/09 08:10:01;;;;;;;9.93;4.28;;;6.40;99.90;;;;;;5004332;28;20052;-74
2023/12/09 08:12:26;;;;;;;12.30;4.53;;;6.40;99.90;;;;;;5002255;28;20057;-74
2023/12/09 08:14:52;;;;;;;10.48;5.72;;;6.50;99.90;;;;;;5002808;28;20050;-75
2023/12/09 08:17:18;;;;;;;12.90;5.63;;;6.50;99.90;;;;;;5003856;28;20460;-75
2023/12/09 08:19:43;;;;;;;11.05;5.78;;;6.50;99.90;;;;;;5002843;28;20144;-74
2023/12/09 08:22:09;;;;;;;13.98;6.22;;;6.50;99.90;;;;;;5002674;28;20683;-74
2023/12/09 08:24:34;;;;;;;15.27;5.82;;;6.50;99.90;;;;;;4998154;28;20315;-74
2023/12/09 08:27:00;;;;;;;22.63;4.85;;;6.50;99.90;;;;;;4998044;28;20050;-74
2023/12/09 08:29:25;;;;;;;12.20;5.05;;;6.50;99.90;;;;;;4983250;28;20137;-74
2023/12/09 08:31:51;;;;;;;17.13;5.40;;;6.50;99.90;;;;;;5000879;28;20038;-75
2023/12/09 08:34:17;;;;;;;9.55;3.83;;;6.50;99.90;;;;;;5004612;28;20751;-74
2023/12/09 08:36:43;;;;;;;7.32;3.72;;;6.60;99.90;;;;;;4989213;28;20089;-74
2023/12/09 08:39:09;;;;;;;16.65;5.45;;;6.60;99.90;;;;;;4982787;28;20046;-74
2023/12/09 08:41:35;;;;;;;7.97;4.22;;;6.60;99.90;;;;;;4966289;28;20550;-74
2023/12/09 08:44:01;;;;;;;7.80;5.60;;;6.60;99.90;;;;;;4984359;28;20046;-74
2023/12/09 08:46:27;;;;;;;11.15;4.93;;;6.60;99.90;;;;;;4994798;28;20056;-74
2023/12/09 08:48:52;;;;;;;13.32;4.50;;;6.60;99.90;;;;;;5020550;28;20136;-74
2023/12/09 08:51:18;;;;;;;11.65;5.57;;;6.60;99.90;;;;;;5023724;28;20046;-75
2023/12/09 08:53:44;;;;;;;11.98;4.15;;;6.60;99.90;;;;;;5005789;28;20395;-75
2023/12/09 08:56:09;;;;;;;12.73;4.32;;;6.60;99.90;;;;;;5002062;28;20046;-75
2023/12/09 08:58:35;;;;;;;11.40;4.63;;;6.60;99.90;;;;;;5002016;28;20390;-75
2023/12/09 09:01:00;;;;;;;8.90;4.35;;;6.70;99.90;;;;;;5004297;28;20042;-74
2023/12/09 09:03:26;;;;;;;11.23;4.22;;;6.70;99.90;;;;;;5004174;28;20092;-74
2023/12/09 09:05:52;;;;;;;7.82;5.30;;;6.70;99.90;;;;;;5020505;28;20045;-74
2023/12/09 09:08:18;;;;;;;16.25;4.43;;;6.70;99.90;;;;;;5000911;28;20049;-75
2023/12/09 09:10:45;;;;;;;9.68;4.25;;;6.70;99.90;;;;;;4986352;28;20060;-75
2023/12/09 09:13:10;;;;;;;14.48;4.03;;;6.70;99.90;;;;;;4983441;28;20109;-75
2023/12/09 09:15:36;;;;;;;8.68;3.67;;;6.80;99.90;;;;;;5001372;28;20469;-75
2023/12/09 09:18:02;;;;;;;7.47;3.72;;;6.80;99.90;;;;;;4994404;28;20095;-75
2023/12/09 09:20:28;;;;;;;8.82;4.43;;;6.80;99.90;;;;;;5012157;28;20050;-75
2023/12/09 09:22:53;;;;;;;7.25;3.70;;;6.80;99.90;;;;;;4997474;28;20370;-74
2023/12/09 09:25:19;;;;;;;11.73;4.30;;;6.80;99.90;;;;;;4982755;28;20037;-75
2023/12/09 09:27:45;;;;;;;8.43;3.75;;;6.80;99.90;;;;;;4991425;28;20105;-76
2023/12/09 09:30:13;;;;;;;9.68;4.03;;;6.80;99.90;;;;;;4989456;28;20115;-79
2023/12/09 09:32:38;;;;;;;12.52;2.97;;;6.80;99.90;;;;;;5001023;28;20211;-75
2023/12/09 09:35:04;;;;;;;4.90;2.72;;;6.80;99.90;;;;;;5000877;28;20045;-75
2023/12/09 09:37:30;;;;;;;8.32;4.25;;;6.80;99.90;;;;;;4997539;28;20092;-75
2023/12/09 09:39:56;;;;;;;9.73;4.47;;;6.80;99.90;;;;;;5000168;28;20488;-75
2023/12/09 09:42:34;;;;;;;7.53;4.03;;;6.80;99.90;;;;;;4994237;28;20516;-75
2023/12/09 09:45:07;;;;;;;6.05;2.92;;;6.80;99.90;;;;;;4991433;28;20042;-75
2023/12/09 09:47:42;;;;;;;4.65;3.22;;;6.80;99.90;;;;;;4972927;28;20165;-74
2023/12/09 09:50:10;;;;;;;6.93;4.07;;;6.80;99.90;;;;;;4989513;28;20046;-79
2023/12/09 09:52:40;;;;;;;8.93;2.92;;;6.90;99.90;;;;;;5003151;28;20034;-73
2023/12/09 09:55:06;;;;;;;5.88;2.75;;;6.80;99.90;;;;;;5007197;28;20061;-74
2023/12/09 09:57:35;;;;;;;9.80;3.95;;;6.80;99.90;;;;;;4990290;28;20041;-74
2023/12/09 10:00:01;;;;;;;8.75;3.40;;;6.90;99.90;;;;;;5004668;28;20130;-73
2023/12/09 10:02:27;;;;;;;6.13;3.13;;;6.90;99.90;;;;;;4992488;28;20042;-73
2023/12/09 10:04:53;;;;;;;9.93;5.13;;;6.90;99.90;;;;;;4983760;28;20054;-72
2023/12/09 10:07:21;;;;;;;13.10;3.97;;;6.90;99.90;;;;;;4996972;28;20046;-72
2023/12/09 10:09:47;;;;;;;5.35;2.40;;;6.90;99.90;;;;;;5000655;28;20124;-72
2023/12/09 10:12:12;;;;;;;6.07;3.35;;;6.90;99.90;;;;;;4993132;28;20145;-72
2023/12/09 10:14:38;;;;;;;6.53;2.22;;;6.90;99.90;;;;;;4974080;28;20062;-78
2023/12/09 10:17:05;;;;;;;10.18;3.25;;;7.00;99.90;;;;;;4994930;28;20408;-78
2023/12/09 10:19:34;;;;;;;4.80;2.83;;;7.00;99.90;;;;;;4988621;28;20050;-77
2023/12/09 10:21:59;;;;;;;4.45;2.75;;;7.00;99.90;;;;;;4985551;28;20129;-79
2023/12/09 10:24:25;;;;;;;8.68;3.17;;;7.00;99.90;;;;;;4994497;28;20221;-79
2023/12/09 10:26:51;;;;;;;11.45;3.22;;;7.00;99.90;;;;;;4991594;28;20266;-78
2023/12/09 10:29:16;;;;;;;7.80;2.63;;;7.00;99.90;;;;;;4986785;28;20125;-75
2023/12/09 10:31:42;;;;;;;11.27;2.40;;;7.10;99.90;;;;;;4998576;28;20046;-75
2023/12/09 10:34:12;;;;;;;7.07;3.08;;;7.10;99.90;;;;;;4996439;28;20038;-77
2023/12/09 10:36:37;;;;;;;6.25;2.55;;;7.10;99.90;;;;;;4994351;28;20053;-77
2023/12/09 10:39:05;;;;;;;3.88;2.42;;;7.10;99.90;;;;;;5000655;28;20037;-77
2023/12/09 10:41:30;;;;;;;6.57;1.95;;;7.10;99.90;;;;;;4997400;28;20627;-76
2023/12/09 10:43:56;;;;;;;7.88;2.92;;;7.20;99.90;;;;;;4985361;28;20034;-76
2023/12/09 10:46:22;;;;;;;4.57;2.38;;;7.20;99.90;;;;;;5000311;28;20050;-76
2023/12/09 10:48:48;;;;;;;9.73;3.72;;;7.20;99.90;;;;;;4989162;28;20038;-77
2023/12/09 10:51:13;;;;;;;9.90;2.63;;;7.20;99.90;;;;;;4993641;28;20355;-77
2023/12/09 10:53:40;;;;;;;4.03;1.80;;;7.20;99.90;;;;;;4979521;28;20046;-75
2023/12/09 10:56:07;;;;;;;9.68;2.80;;;7.30;99.90;;;;;;4998770;28;20116;-75
2023/12/09 10:58:36;;;;;;;5.50;2.67;;;7.30;99.90;;;;;;4989990;28;20600;-76
2023/12/09 11:01:03;;;;;;;5.03;2.40;;;7.30;99.90;;;;;;4983315;28;20042;-76
2023/12/09 11:03:29;;;;;;;5.57;2.22;;;7.30;99.90;;;;;;4981051;28;20041;-76
2023/12/09 11:05:58;;;;;;;9.35;2.13;;;7.30;99.90;;;;;;4990529;28;20092;-76
2023/12/09 11:08:28;;;;;;;8.02;2.85;;;7.30;99.90;;;;;;4998966;28;20488;-76
2023/12/09 11:10:55;;;;;;;8.23;2.80;;;7.30;99.90;;;;;;4980477;28;20460;-76
2023/12/09 11:13:24;;;;;;;3.97;2.08;;;7.30;99.90;;;;;;4999683;28;20077;-76
2023/12/09 11:16:23;;;;;;;3.42;2.30;;;7.30;99.90;;;;;;5001066;28;20046;-76
2023/12/09 11:18:56;;;;;;;6.32;2.58;;;7.30;99.90;;;;;;4984258;28;20034;-75
2023/12/09 11:21:25;;;;;;;8.25;2.78;;;7.30;99.90;;;;;;4997693;28;20042;-76
2023/12/09 11:23:53;;;;;;;5.55;2.42;;;7.30;99.90;;;;;;4991407;28;20091;-77
2023/12/09 11:26:26;;;;;;;6.05;2.33;;;7.30;99.90;;;;;;5004927;28;20057;-76
2023/12/09 11:28:59;;;;;;;7.93;2.85;;;7.30;99.90;;;;;;4999119;28;20724;-75
2023/12/09 11:31:32;;;;;;;5.90;2.00;;;7.30;99.90;;;;;;4991634;28;20385;-77
2023/12/09 11:33:59;;;;;;;2.78;1.58;;;7.30;99.90;;;;;;5000122;28;20044;-76
2023/12/09 11:36:28;;;;;;;3.47;2.33;;;7.30;99.90;;;;;;5000155;28;20042;-77
2023/12/09 11:39:06;;;;;;;2.97;2.15;;;7.30;99.90;;;;;;5000574;28;20111;-87
2023/12/09 11:41:35;;;;;;;6.43;2.58;;;7.30;99.90;;;;;;4998345;28;20129;-84
2023/12/09 11:44:04;;;;;;;7.60;3.17;;;7.30;99.90;;;;;;4996280;28;20034;-82
2023/12/09 11:46:34;;;;;;;4.00;1.52;;;7.30;99.90;;;;;;5017430;28;20053;-84
2023/12/09 11:49:00;;;;;;;5.95;1.92;;;7.30;99.90;;;;;;5008019;28;20140;-85
2023/12/09 11:51:28;;;;;;;3.97;2.38;;;7.20;99.90;;;;;;4987681;28;20068;-87
2023/12/09 11:54:01;;;;;;;3.72;2.15;;;7.30;99.90;;;;;;5013518;28;20468;-87
2023/12/09 11:56:27;;;;;;;4.50;2.70;;;7.20;99.90;;;;;;4998509;28;20057;-84
2023/12/09 11:58:54;;;;;;;10.10;2.08;;;7.20;99.90;;;;;;4989138;28;20136;-88
2023/12/09 12:01:20;;;;;;;6.13;3.05;;;7.30;99.90;;;;;;5004485;28;20049;-83
2023/12/09 12:03:47;;;;;;;4.22;1.90;;;7.30;99.90;;;;;;5022173;28;20053;-85
2023/12/09 12:06:16;;;;;;;7.00;1.95;;;7.30;99.90;;;;;;5021405;28;20141;-89
2023/12/09 12:08:46;;;;;;;6.63;1.90;;;7.30;99.90;;;;;;5013691;28;20106;-86
2023/12/09 12:11:12;;;;;;;4.15;2.50;;;7.30;99.90;;;;;;5001430;28;20038;-85
2023/12/09 12:13:37;;;;;;;9.07;2.72;;;7.30;99.90;;;;;;4986531;28;20049;-90
2023/12/09 12:16:04;;;;;;;5.38;2.15;;;7.30;99.90;;;;;;5002443;28;20575;-85
2023/12/09 12:18:30;;;;;;;3.95;1.77;;;7.30;99.90;;;;;;5002336;28;20400;-87
2023/12/09 12:20:56;;;;;;;4.82;1.70;;;7.30;99.90;;;;;;5001943;28;20133;-88
2023/12/09 12:23:22;;;;;;;5.18;1.80;;;7.30;99.90;;;;;;4998947;28;20046;-87
2023/12/09 12:25:54;;;;;;;3.03;2.10;;;7.30;99.90;;;;;;4978935;28;20448;-83
2023/12/09 12:28:20;;;;;;;6.63;2.53;;;7.30;99.90;;;;;;4982841;28;20070;-85
2023/12/09 12:30:53;;;;;;;3.03;2.35;;;7.30;99.90;;;;;;4992315;28;20046;-89
2023/12/09 12:33:25;;;;;;;4.22;1.80;;;7.30;99.90;;;;;;5001842;28;20056;-83
2023/12/09 12:35:54;;;;;;;;;;;7.30;99.90;;;;;;4985833;28;20472;-83
2023/12/09 12:38:24;;;;;;;4.95;2.83;;;7.30;99.90;;;;;;4985775;28;20180;-84
2023/12/09 12:40:54;;;;;;;1.25;1.10;;;7.30;99.90;;;;;;5001210;28;20049;-82
2023/12/09 12:43:20;;;;;;;6.13;1.88;;;7.30;99.90;;;;;;5001230;28;20038;-82
2023/12/09 12:45:48;;;;;;;1.30;1.00;;;7.30;99.90;;;;;;5002076;28;20469;-85
2023/12/09 12:48:14;;;;;;;4.82;1.55;;;7.30;99.90;;;;;;5001142;28;20042;-88